sensor_id;sensor_type;location;lat;lon;timestamp;P1;durP1;ratioP1;P2;durP2;ratioP2
49366;SDS011;35245;52.026;8.540;2023-02-11T00:00:42;62.55;;;36.25;;
49366;SDS011;35245;52.026;8.540;2023-02-11T00:03:09;66.50;;;38.50;;
49366;SDS011;35245;52.026;8.540;2023-02-11T00:05:38;68.97;;;38.08;;
49366;SDS011;35245;52.026;8.540;2023-02-11T00:08:05;67.72;;;37.90;;
49366;SDS011;35245;52.026;8.540;2023-02-11T00:10:32;67.78;;;37.63;;
49366;SDS011;35245;52.026;8.540;2023-02-11T00:12:59;66.53;;;39.35;;
49366;SDS011;35245;52.026;8.540;2023-02-11T00:15:27;69.93;;;39.15;;
49366;SDS011;35245;52.026;8.540;2023-02-11T00:17:54;69.63;;;38.90;;
49366;SDS011;35245;52.026;8.540;2023-02-11T00:20:21;72.22;;;39.35;;
49366;SDS011;35245;52.026;8.540;2023-02-11T00:22:50;69.03;;;38.20;;
49366;SDS011;35245;52.026;8.540;2023-02-11T00:25:17;62.80;;;37.53;;
49366;SDS011;35245;52.026;8.540;2023-02-11T00:27:44;64.28;;;38.13;;
49366;SDS011;35245;52.026;8.540;2023-02-11T00:30:12;79.60;;;40.35;;
49366;SDS011;35245;52.026;8.540;2023-02-11T00:32:40;62.35;;;38.53;;
49366;SDS011;35245;52.026;8.540;2023-02-11T00:35:07;70.32;;;39.90;;
49366;SDS011;35245;52.026;8.540;2023-02-11T00:37:34;69.55;;;38.05;;
49366;SDS011;35245;52.026;8.540;2023-02-11T00:40:03;76.15;;;39.03;;
49366;SDS011;35245;52.026;8.540;2023-02-11T00:42:32;67.78;;;40.03;;
49366;SDS011;35245;52.026;8.540;2023-02-11T00:44:59;68.65;;;38.40;;
49366;SDS011;35245;52.026;8.540;2023-02-11T00:47:27;73.47;;;40.10;;
49366;SDS011;35245;52.026;8.540;2023-02-11T00:49:54;73.50;;;40.50;;
49366;SDS011;35245;52.026;8.540;2023-02-11T00:52:21;68.65;;;41.53;;
49366;SDS011;35245;52.026;8.540;2023-02-11T00:54:49;75.53;;;41.90;;
49366;SDS011;35245;52.026;8.540;2023-02-11T00:57:17;79.32;;;43.50;;
49366;SDS011;35245;52.026;8.540;2023-02-11T00:59:45;80.45;;;44.88;;
49366;SDS011;35245;52.026;8.540;2023-02-11T01:02:12;79.13;;;43.08;;
49366;SDS011;35245;52.026;8.540;2023-02-11T01:04:39;78.13;;;44.13;;
49366;SDS011;35245;52.026;8.540;2023-02-11T01:07:07;73.75;;;44.83;;
49366;SDS011;35245;52.026;8.540;2023-02-11T01:09:36;83.22;;;45.17;;
49366;SDS011;35245;52.026;8.540;2023-02-11T01:12:06;84.20;;;46.17;;
49366;SDS011;35245;52.026;8.540;2023-02-11T01:14:35;83.78;;;45.83;;
49366;SDS011;35245;52.026;8.540;2023-02-11T01:17:03;86.28;;;47.50;;
49366;SDS011;35245;52.026;8.540;2023-02-11T01:19:30;92.57;;;46.58;;
49366;SDS011;35245;52.026;8.540;2023-02-11T01:21:58;89.40;;;48.13;;
49366;SDS011;35245;52.026;8.540;2023-02-11T01:24:25;79.78;;;46.08;;
49366;SDS011;35245;52.026;8.540;2023-02-11T01:26:52;83.35;;;46.25;;
49366;SDS011;35245;52.026;8.540;2023-02-11T01:29:20;84.72;;;48.45;;
49366;SDS011;35245;52.026;8.540;2023-02-11T01:31:49;83.13;;;47.90;;
49366;SDS011;35245;52.026;8.540;2023-02-11T01:34:16;81.80;;;48.05;;
49366;SDS011;35245;52.026;8.540;2023-02-11T01:36:43;84.05;;;48.58;;
49366;SDS011;35245;52.026;8.540;2023-02-11T01:39:11;82.32;;;46.47;;
49366;SDS011;35245;52.026;8.540;2023-02-11T01:41:38;92.00;;;49.80;;
49366;SDS011;35245;52.026;8.540;2023-02-11T01:44:22;76.85;;;47.30;;
49366;SDS011;35245;52.026;8.540;2023-02-11T01:46:54;89.15;;;49.45;;
49366;SDS011;35245;52.026;8.540;2023-02-11T01:49:22;77.22;;;44.47;;
49366;SDS011;35245;52.026;8.540;2023-02-11T01:51:55;80.00;;;47.30;;
49366;SDS011;35245;52.026;8.540;2023-02-11T01:54:27;78.20;;;47.35;;
49366;SDS011;35245;52.026;8.540;2023-02-11T01:57:31;80.35;;;45.97;;
49366;SDS011;35245;52.026;8.540;2023-02-11T02:00:07;83.97;;;48.20;;
49366;SDS011;35245;52.026;8.540;2023-02-11T02:02:41;80.50;;;46.35;;
49366;SDS011;35245;52.026;8.540;2023-02-11T02:05:18;81.72;;;46.55;;
49366;SDS011;35245;52.026;8.540;2023-02-11T02:07:56;80.25;;;45.30;;
49366;SDS011;35245;52.026;8.540;2023-02-11T02:10:32;87.63;;;48.03;;
49366;SDS011;35245;52.026;8.540;2023-02-11T02:13:02;83.70;;;48.53;;
49366;SDS011;35245;52.026;8.540;2023-02-11T02:15:29;81.88;;;47.33;;
49366;SDS011;35245;52.026;8.540;2023-02-11T02:18:01;84.13;;;47.63;;
49366;SDS011;35245;52.026;8.540;2023-02-11T02:23:52;84.78;;;46.47;;
49366;SDS011;35245;52.026;8.540;2023-02-11T02:27:00;84.10;;;46.17;;
49366;SDS011;35245;52.026;8.540;2023-02-11T02:33:14;75.90;;;43.97;;
49366;SDS011;35245;52.026;8.540;2023-02-11T02:35:57;81.75;;;44.10;;
49366;SDS011;35245;52.026;8.540;2023-02-11T02:38:36;80.18;;;45.65;;
49366;SDS011;35245;52.026;8.540;2023-02-11T02:41:09;85.45;;;47.85;;
49366;SDS011;35245;52.026;8.540;2023-02-11T02:43:40;83.30;;;46.50;;
49366;SDS011;35245;52.026;8.540;2023-02-11T02:46:11;81.90;;;45.95;;
49366;SDS011;35245;52.026;8.540;2023-02-11T02:48:42;84.97;;;45.38;;
49366;SDS011;35245;52.026;8.540;2023-02-11T02:51:14;83.85;;;45.90;;
49366;SDS011;35245;52.026;8.540;2023-02-11T03:01:02;78.45;;;46.10;;
49366;SDS011;35245;52.026;8.540;2023-02-11T03:03:42;82.88;;;48.28;;
49366;SDS011;35245;52.026;8.540;2023-02-11T03:06:20;85.78;;;48.63;;
49366;SDS011;35245;52.026;8.540;2023-02-11T03:08:58;93.15;;;48.05;;
49366;SDS011;35245;52.026;8.540;2023-02-11T03:11:31;84.80;;;47.42;;
49366;SDS011;35245;52.026;8.540;2023-02-11T03:14:00;88.03;;;48.13;;
49366;SDS011;35245;52.026;8.540;2023-02-11T03:16:31;88.43;;;47.58;;
49366;SDS011;35245;52.026;8.540;2023-02-11T03:19:05;75.35;;;44.53;;
49366;SDS011;35245;52.026;8.540;2023-02-11T03:21:38;92.38;;;47.95;;
49366;SDS011;35245;52.026;8.540;2023-02-11T03:24:09;93.45;;;48.25;;
49366;SDS011;35245;52.026;8.540;2023-02-11T03:29:13;93.40;;;48.42;;
49366;SDS011;35245;52.026;8.540;2023-02-11T03:31:50;90.35;;;46.17;;
49366;SDS011;35245;52.026;8.540;2023-02-11T03:34:28;99.30;;;49.63;;
49366;SDS011;35245;52.026;8.540;2023-02-11T03:37:02;85.47;;;47.33;;
49366;SDS011;35245;52.026;8.540;2023-02-11T03:39:35;102.43;;;52.10;;
49366;SDS011;35245;52.026;8.540;2023-02-11T03:42:06;97.90;;;50.67;;
49366;SDS011;35245;52.026;8.540;2023-02-11T03:44:36;95.00;;;48.65;;
49366;SDS011;35245;52.026;8.540;2023-02-11T03:47:09;82.95;;;46.70;;
49366;SDS011;35245;52.026;8.540;2023-02-11T03:49:42;89.57;;;47.92;;
49366;SDS011;35245;52.026;8.540;2023-02-11T03:52:14;87.47;;;47.88;;
49366;SDS011;35245;52.026;8.540;2023-02-11T03:54:43;93.65;;;48.55;;
49366;SDS011;35245;52.026;8.540;2023-02-11T03:57:14;82.72;;;47.97;;
49366;SDS011;35245;52.026;8.540;2023-02-11T03:59:48;85.35;;;46.90;;
49366;SDS011;35245;52.026;8.540;2023-02-11T04:02:17;81.30;;;44.88;;
49366;SDS011;35245;52.026;8.540;2023-02-11T04:04:47;79.85;;;43.42;;
49366;SDS011;35245;52.026;8.540;2023-02-11T04:07:14;81.78;;;42.00;;
49366;SDS011;35245;52.026;8.540;2023-02-11T04:09:41;77.65;;;41.38;;
49366;SDS011;35245;52.026;8.540;2023-02-11T04:12:08;73.65;;;39.63;;
49366;SDS011;35245;52.026;8.540;2023-02-11T04:14:35;75.68;;;41.53;;
49366;SDS011;35245;52.026;8.540;2023-02-11T04:17:03;69.65;;;41.05;;
49366;SDS011;35245;52.026;8.540;2023-02-11T04:19:30;67.65;;;38.25;;
49366;SDS011;35245;52.026;8.540;2023-02-11T04:21:59;68.32;;;37.58;;
49366;SDS011;35245;52.026;8.540;2023-02-11T04:24:27;61.95;;;36.95;;
49366;SDS011;35245;52.026;8.540;2023-02-11T04:26:54;62.72;;;36.10;;
49366;SDS011;35245;52.026;8.540;2023-02-11T04:29:21;60.13;;;36.22;;
49366;SDS011;35245;52.026;8.540;2023-02-11T04:31:48;62.33;;;35.30;;
49366;SDS011;35245;52.026;8.540;2023-02-11T04:34:15;62.88;;;34.90;;
49366;SDS011;35245;52.026;8.540;2023-02-11T04:36:43;61.35;;;34.67;;
49366;SDS011;35245;52.026;8.540;2023-02-11T04:39:11;63.38;;;33.47;;
49366;SDS011;35245;52.026;8.540;2023-02-11T04:41:38;56.03;;;33.63;;
49366;SDS011;35245;52.026;8.540;2023-02-11T04:44:06;61.83;;;32.60;;
49366;SDS011;35245;52.026;8.540;2023-02-11T04:46:33;61.38;;;34.60;;
49366;SDS011;35245;52.026;8.540;2023-02-11T04:49:00;54.53;;;33.05;;
49366;SDS011;35245;52.026;8.540;2023-02-11T04:51:28;56.50;;;33.22;;
49366;SDS011;35245;52.026;8.540;2023-02-11T04:53:55;61.22;;;34.08;;
49366;SDS011;35245;52.026;8.540;2023-02-11T04:56:23;57.65;;;32.60;;
49366;SDS011;35245;52.026;8.540;2023-02-11T04:58:51;57.13;;;31.75;;
49366;SDS011;35245;52.026;8.540;2023-02-11T05:01:18;59.92;;;32.35;;
49366;SDS011;35245;52.026;8.540;2023-02-11T05:03:45;58.10;;;33.97;;
49366;SDS011;35245;52.026;8.540;2023-02-11T05:06:12;60.20;;;34.08;;
49366;SDS011;35245;52.026;8.540;2023-02-11T05:08:39;57.58;;;34.65;;
49366;SDS011;35245;52.026;8.540;2023-02-11T05:11:07;62.28;;;35.28;;
49366;SDS011;35245;52.026;8.540;2023-02-11T05:13:40;65.03;;;33.22;;
49366;SDS011;35245;52.026;8.540;2023-02-11T05:16:08;56.88;;;34.47;;
49366;SDS011;35245;52.026;8.540;2023-02-11T05:18:36;57.45;;;33.42;;
49366;SDS011;35245;52.026;8.540;2023-02-11T05:21:04;58.45;;;34.45;;
49366;SDS011;35245;52.026;8.540;2023-02-11T05:23:33;64.82;;;35.58;;
49366;SDS011;35245;52.026;8.540;2023-02-11T05:26:01;59.38;;;34.75;;
49366;SDS011;35245;52.026;8.540;2023-02-11T05:28:29;54.80;;;32.63;;
49366;SDS011;35245;52.026;8.540;2023-02-11T05:30:58;56.10;;;34.55;;
49366;SDS011;35245;52.026;8.540;2023-02-11T05:33:25;60.40;;;35.08;;
49366;SDS011;35245;52.026;8.540;2023-02-11T05:35:56;57.17;;;34.03;;
49366;SDS011;35245;52.026;8.540;2023-02-11T05:38:25;57.53;;;34.58;;
49366;SDS011;35245;52.026;8.540;2023-02-11T05:40:52;59.35;;;35.50;;
49366;SDS011;35245;52.026;8.540;2023-02-11T05:43:20;64.07;;;34.92;;
49366;SDS011;35245;52.026;8.540;2023-02-11T05:45:48;59.47;;;35.42;;
49366;SDS011;35245;52.026;8.540;2023-02-11T05:48:16;63.83;;;36.83;;
49366;SDS011;35245;52.026;8.540;2023-02-11T05:50:43;63.03;;;36.00;;
49366;SDS011;35245;52.026;8.540;2023-02-11T05:53:11;64.72;;;35.05;;
49366;SDS011;35245;52.026;8.540;2023-02-11T05:55:38;62.38;;;34.42;;
49366;SDS011;35245;52.026;8.540;2023-02-11T05:58:05;65.40;;;34.60;;
49366;SDS011;35245;52.026;8.540;2023-02-11T06:00:33;63.85;;;32.85;;
49366;SDS011;35245;52.026;8.540;2023-02-11T06:03:01;54.60;;;33.60;;
49366;SDS011;35245;52.026;8.540;2023-02-11T06:05:30;62.08;;;33.00;;
49366;SDS011;35245;52.026;8.540;2023-02-11T06:07:58;58.03;;;32.88;;
49366;SDS011;35245;52.026;8.540;2023-02-11T06:10:25;58.58;;;34.78;;
49366;SDS011;35245;52.026;8.540;2023-02-11T06:12:52;57.15;;;33.10;;
49366;SDS011;35245;52.026;8.540;2023-02-11T06:15:19;63.45;;;34.17;;
49366;SDS011;35245;52.026;8.540;2023-02-11T06:17:47;56.42;;;33.42;;
49366;SDS011;35245;52.026;8.540;2023-02-11T06:20:14;59.83;;;35.22;;
49366;SDS011;35245;52.026;8.540;2023-02-11T06:22:43;50.03;;;34.25;;
49366;SDS011;35245;52.026;8.540;2023-02-11T06:25:10;64.72;;;36.08;;
49366;SDS011;35245;52.026;8.540;2023-02-11T06:27:38;67.55;;;35.10;;
49366;SDS011;35245;52.026;8.540;2023-02-11T06:30:05;64.50;;;35.60;;
49366;SDS011;35245;52.026;8.540;2023-02-11T06:32:34;55.13;;;33.58;;
49366;SDS011;35245;52.026;8.540;2023-02-11T06:35:02;65.00;;;33.75;;
49366;SDS011;35245;52.026;8.540;2023-02-11T06:37:29;60.03;;;33.72;;
49366;SDS011;35245;52.026;8.540;2023-02-11T06:39:58;58.95;;;35.97;;
49366;SDS011;35245;52.026;8.540;2023-02-11T06:42:25;66.60;;;35.25;;
49366;SDS011;35245;52.026;8.540;2023-02-11T06:44:52;62.60;;;35.25;;
49366;SDS011;35245;52.026;8.540;2023-02-11T06:47:19;64.70;;;35.40;;
49366;SDS011;35245;52.026;8.540;2023-02-11T06:49:46;68.45;;;36.95;;
49366;SDS011;35245;52.026;8.540;2023-02-11T06:52:14;64.35;;;36.38;;
49366;SDS011;35245;52.026;8.540;2023-02-11T06:54:41;58.65;;;37.80;;
49366;SDS011;35245;52.026;8.540;2023-02-11T06:57:10;58.85;;;35.90;;
49366;SDS011;35245;52.026;8.540;2023-02-11T06:59:37;62.28;;;35.53;;
49366;SDS011;35245;52.026;8.540;2023-02-11T07:02:04;67.47;;;36.05;;
49366;SDS011;35245;52.026;8.540;2023-02-11T07:04:31;65.00;;;37.78;;
49366;SDS011;35245;52.026;8.540;2023-02-11T07:06:59;60.42;;;35.38;;
49366;SDS011;35245;52.026;8.540;2023-02-11T07:09:26;63.05;;;36.30;;
49366;SDS011;35245;52.026;8.540;2023-02-11T07:11:53;67.80;;;38.38;;
49366;SDS011;35245;52.026;8.540;2023-02-11T07:14:21;61.08;;;38.35;;
49366;SDS011;35245;52.026;8.540;2023-02-11T07:16:49;70.95;;;38.88;;
49366;SDS011;35245;52.026;8.540;2023-02-11T07:19:16;63.53;;;36.95;;
49366;SDS011;35245;52.026;8.540;2023-02-11T07:21:43;63.35;;;38.10;;
49366;SDS011;35245;52.026;8.540;2023-02-11T07:24:12;69.63;;;38.25;;
49366;SDS011;35245;52.026;8.540;2023-02-11T07:26:40;66.40;;;40.17;;
49366;SDS011;35245;52.026;8.540;2023-02-11T07:29:07;72.80;;;41.60;;
49366;SDS011;35245;52.026;8.540;2023-02-11T07:31:36;66.05;;;39.67;;
49366;SDS011;35245;52.026;8.540;2023-02-11T07:34:03;71.78;;;40.92;;
49366;SDS011;35245;52.026;8.540;2023-02-11T07:36:30;71.47;;;41.33;;
49366;SDS011;35245;52.026;8.540;2023-02-11T07:38:57;75.03;;;42.05;;
49366;SDS011;35245;52.026;8.540;2023-02-11T07:41:25;67.78;;;40.85;;
49366;SDS011;35245;52.026;8.540;2023-02-11T07:43:53;71.35;;;40.75;;
49366;SDS011;35245;52.026;8.540;2023-02-11T07:46:21;74.20;;;42.63;;
49366;SDS011;35245;52.026;8.540;2023-02-11T07:48:52;70.85;;;41.35;;
49366;SDS011;35245;52.026;8.540;2023-02-11T07:51:20;76.57;;;42.42;;
49366;SDS011;35245;52.026;8.540;2023-02-11T07:53:50;66.65;;;41.65;;
49366;SDS011;35245;52.026;8.540;2023-02-11T07:56:18;72.13;;;41.60;;
49366;SDS011;35245;52.026;8.540;2023-02-11T07:58:46;75.53;;;41.35;;
49366;SDS011;35245;52.026;8.540;2023-02-11T08:01:15;77.90;;;41.40;;
49366;SDS011;35245;52.026;8.540;2023-02-11T08:03:44;73.80;;;43.25;;
49366;SDS011;35245;52.026;8.540;2023-02-11T08:06:13;78.97;;;45.75;;
49366;SDS011;35245;52.026;8.540;2023-02-11T08:08:42;72.28;;;42.42;;
49366;SDS011;35245;52.026;8.540;2023-02-11T08:11:10;76.57;;;42.25;;
49366;SDS011;35245;52.026;8.540;2023-02-11T08:13:39;75.38;;;43.42;;
49366;SDS011;35245;52.026;8.540;2023-02-11T08:16:08;76.10;;;44.00;;
49366;SDS011;35245;52.026;8.540;2023-02-11T08:18:42;81.90;;;44.22;;
49366;SDS011;35245;52.026;8.540;2023-02-11T08:21:09;73.72;;;42.85;;
49366;SDS011;35245;52.026;8.540;2023-02-11T08:23:38;79.82;;;43.35;;
49366;SDS011;35245;52.026;8.540;2023-02-11T08:26:08;72.38;;;43.63;;
49366;SDS011;35245;52.026;8.540;2023-02-11T08:28:38;78.93;;;45.35;;
49366;SDS011;35245;52.026;8.540;2023-02-11T08:31:08;84.70;;;45.13;;
49366;SDS011;35245;52.026;8.540;2023-02-11T08:33:39;73.70;;;42.92;;
49366;SDS011;35245;52.026;8.540;2023-02-11T08:36:07;76.07;;;43.05;;
49366;SDS011;35245;52.026;8.540;2023-02-11T08:38:35;77.72;;;44.22;;
49366;SDS011;35245;52.026;8.540;2023-02-11T08:41:04;83.22;;;45.10;;
49366;SDS011;35245;52.026;8.540;2023-02-11T08:43:32;76.43;;;43.38;;
49366;SDS011;35245;52.026;8.540;2023-02-11T08:46:00;80.93;;;45.45;;
49366;SDS011;35245;52.026;8.540;2023-02-11T08:48:27;86.45;;;45.15;;
49366;SDS011;35245;52.026;8.540;2023-02-11T08:50:55;80.60;;;45.40;;
49366;SDS011;35245;52.026;8.540;2023-02-11T08:53:22;87.93;;;44.85;;
49366;SDS011;35245;52.026;8.540;2023-02-11T08:55:52;78.00;;;44.45;;
49366;SDS011;35245;52.026;8.540;2023-02-11T09:00:49;79.32;;;43.83;;
49366;SDS011;35245;52.026;8.540;2023-02-11T09:03:16;84.35;;;45.28;;
49366;SDS011;35245;52.026;8.540;2023-02-11T09:05:44;88.60;;;46.05;;
49366;SDS011;35245;52.026;8.540;2023-02-11T09:08:13;81.40;;;44.25;;
49366;SDS011;35245;52.026;8.540;2023-02-11T09:10:40;88.38;;;45.92;;
49366;SDS011;35245;52.026;8.540;2023-02-11T09:13:09;82.75;;;44.20;;
49366;SDS011;35245;52.026;8.540;2023-02-11T09:15:37;87.55;;;45.08;;
49366;SDS011;35245;52.026;8.540;2023-02-11T09:18:04;80.15;;;45.28;;
49366;SDS011;35245;52.026;8.540;2023-02-11T09:20:31;82.68;;;44.42;;
49366;SDS011;35245;52.026;8.540;2023-02-11T09:22:59;93.45;;;45.67;;
49366;SDS011;35245;52.026;8.540;2023-02-11T09:25:26;82.13;;;43.90;;
49366;SDS011;35245;52.026;8.540;2023-02-11T09:27:53;90.63;;;45.90;;
49366;SDS011;35245;52.026;8.540;2023-02-11T09:30:22;84.00;;;46.53;;
49366;SDS011;35245;52.026;8.540;2023-02-11T09:32:49;91.60;;;47.78;;
49366;SDS011;35245;52.026;8.540;2023-02-11T09:35:16;88.80;;;47.22;;
49366;SDS011;35245;52.026;8.540;2023-02-11T09:37:44;97.15;;;48.90;;
49366;SDS011;35245;52.026;8.540;2023-02-11T09:40:11;88.28;;;47.40;;
49366;SDS011;35245;52.026;8.540;2023-02-11T09:42:42;84.05;;;46.70;;
49366;SDS011;35245;52.026;8.540;2023-02-11T09:45:16;92.22;;;48.33;;
49366;SDS011;35245;52.026;8.540;2023-02-11T09:47:49;96.72;;;49.28;;
49366;SDS011;35245;52.026;8.540;2023-02-11T09:50:22;90.05;;;46.97;;
49366;SDS011;35245;52.026;8.540;2023-02-11T09:52:56;98.20;;;48.80;;
49366;SDS011;35245;52.026;8.540;2023-02-11T09:55:27;95.32;;;45.38;;
49366;SDS011;35245;52.026;8.540;2023-02-11T09:58:02;87.05;;;46.92;;
49366;SDS011;35245;52.026;8.540;2023-02-11T10:00:36;85.45;;;45.17;;
49366;SDS011;35245;52.026;8.540;2023-02-11T10:03:17;84.38;;;45.47;;
49366;SDS011;35245;52.026;8.540;2023-02-11T10:06:24;88.77;;;46.83;;
49366;SDS011;35245;52.026;8.540;2023-02-11T10:09:09;85.43;;;45.53;;
49366;SDS011;35245;52.026;8.540;2023-02-11T10:12:17;95.18;;;45.45;;
49366;SDS011;35245;52.026;8.540;2023-02-11T10:17:58;84.50;;;44.25;;
49366;SDS011;35245;52.026;8.540;2023-02-11T10:20:45;80.88;;;42.30;;
49366;SDS011;35245;52.026;8.540;2023-02-11T10:23:22;82.63;;;44.63;;
49366;SDS011;35245;52.026;8.540;2023-02-11T10:25:54;82.97;;;45.03;;
49366;SDS011;35245;52.026;8.540;2023-02-11T10:28:26;85.25;;;46.20;;
49366;SDS011;35245;52.026;8.540;2023-02-11T10:30:58;88.25;;;45.20;;
49366;SDS011;35245;52.026;8.540;2023-02-11T10:33:29;93.05;;;45.97;;
49366;SDS011;35245;52.026;8.540;2023-02-11T10:36:04;88.38;;;46.53;;
49366;SDS011;35245;52.026;8.540;2023-02-11T10:38:32;83.57;;;44.50;;
49366;SDS011;35245;52.026;8.540;2023-02-11T10:41:01;82.97;;;44.15;;
49366;SDS011;35245;52.026;8.540;2023-02-11T10:43:29;88.18;;;43.55;;
49366;SDS011;35245;52.026;8.540;2023-02-11T10:46:00;86.18;;;44.53;;
49366;SDS011;35245;52.026;8.540;2023-02-11T10:48:39;75.80;;;44.30;;
49366;SDS011;35245;52.026;8.540;2023-02-11T10:51:21;84.78;;;43.17;;
49366;SDS011;35245;52.026;8.540;2023-02-11T10:56:45;71.18;;;40.45;;
49366;SDS011;35245;52.026;8.540;2023-02-11T10:59:17;77.43;;;40.87;;
49366;SDS011;35245;52.026;8.540;2023-02-11T11:01:52;77.53;;;42.05;;
49366;SDS011;35245;52.026;8.540;2023-02-11T11:04:32;83.68;;;43.47;;
49366;SDS011;35245;52.026;8.540;2023-02-11T11:07:11;74.57;;;41.55;;
49366;SDS011;35245;52.026;8.540;2023-02-11T11:09:49;79.47;;;41.72;;
49366;SDS011;35245;52.026;8.540;2023-02-11T11:12:26;75.18;;;39.55;;
49366;SDS011;35245;52.026;8.540;2023-02-11T11:15:01;78.22;;;40.92;;
49366;SDS011;35245;52.026;8.540;2023-02-11T11:17:42;71.82;;;39.70;;
49366;SDS011;35245;52.026;8.540;2023-02-11T11:20:15;66.65;;;38.47;;
49366;SDS011;35245;52.026;8.540;2023-02-11T11:22:50;63.88;;;37.55;;
49366;SDS011;35245;52.026;8.540;2023-02-11T11:25:32;64.40;;;38.17;;
49366;SDS011;35245;52.026;8.540;2023-02-11T11:28:04;71.43;;;38.72;;
49366;SDS011;35245;52.026;8.540;2023-02-11T11:30:44;74.00;;;37.80;;
49366;SDS011;35245;52.026;8.540;2023-02-11T11:33:15;68.35;;;38.85;;
49366;SDS011;35245;52.026;8.540;2023-02-11T11:35:57;70.28;;;39.47;;
49366;SDS011;35245;52.026;8.540;2023-02-11T11:38:29;63.72;;;37.78;;
49366;SDS011;35245;52.026;8.540;2023-02-11T11:43:54;64.00;;;35.75;;
49366;SDS011;35245;52.026;8.540;2023-02-11T11:49:34;64.32;;;34.95;;
49366;SDS011;35245;52.026;8.540;2023-02-11T11:52:10;63.78;;;34.47;;
49366;SDS011;35245;52.026;8.540;2023-02-11T11:54:49;59.40;;;34.00;;
49366;SDS011;35245;52.026;8.540;2023-02-11T11:57:23;59.17;;;34.30;;
49366;SDS011;35245;52.026;8.540;2023-02-11T11:59:54;63.90;;;34.88;;
49366;SDS011;35245;52.026;8.540;2023-02-11T12:02:31;61.63;;;35.80;;
49366;SDS011;35245;52.026;8.540;2023-02-11T12:05:26;62.70;;;35.85;;
49366;SDS011;35245;52.026;8.540;2023-02-11T12:08:10;59.65;;;35.15;;
49366;SDS011;35245;52.026;8.540;2023-02-11T12:10:55;57.80;;;34.17;;
49366;SDS011;35245;52.026;8.540;2023-02-11T12:13:38;60.80;;;34.67;;
49366;SDS011;35245;52.026;8.540;2023-02-11T12:16:18;55.28;;;33.45;;
49366;SDS011;35245;52.026;8.540;2023-02-11T12:22:09;57.38;;;33.53;;
49366;SDS011;35245;52.026;8.540;2023-02-11T12:24:44;68.32;;;36.53;;
49366;SDS011;35245;52.026;8.540;2023-02-11T12:27:41;61.03;;;36.00;;
49366;SDS011;35245;52.026;8.540;2023-02-11T12:30:18;59.85;;;34.50;;
49366;SDS011;35245;52.026;8.540;2023-02-11T12:32:59;61.92;;;36.47;;
49366;SDS011;35245;52.026;8.540;2023-02-11T12:35:42;61.58;;;34.72;;
49366;SDS011;35245;52.026;8.540;2023-02-11T12:38:26;57.58;;;34.25;;
49366;SDS011;35245;52.026;8.540;2023-02-11T12:41:20;62.72;;;33.75;;
49366;SDS011;35245;52.026;8.540;2023-02-11T12:44:22;58.42;;;34.22;;
49366;SDS011;35245;52.026;8.540;2023-02-11T12:47:00;71.05;;;36.28;;
49366;SDS011;35245;52.026;8.540;2023-02-11T12:49:44;66.22;;;34.40;;
49366;SDS011;35245;52.026;8.540;2023-02-11T12:52:44;55.97;;;33.33;;
49366;SDS011;35245;52.026;8.540;2023-02-11T12:55:35;58.83;;;34.10;;
49366;SDS011;35245;52.026;8.540;2023-02-11T12:58:09;59.60;;;33.65;;
49366;SDS011;35245;52.026;8.540;2023-02-11T13:00:45;60.60;;;33.30;;
49366;SDS011;35245;52.026;8.540;2023-02-11T13:03:18;58.95;;;32.85;;
49366;SDS011;35245;52.026;8.540;2023-02-11T13:05:51;63.75;;;33.72;;
49366;SDS011;35245;52.026;8.540;2023-02-11T13:08:29;59.95;;;34.28;;
49366;SDS011;35245;52.026;8.540;2023-02-11T13:11:01;57.78;;;32.38;;
49366;SDS011;35245;52.026;8.540;2023-02-11T13:13:37;62.22;;;33.05;;
49366;SDS011;35245;52.026;8.540;2023-02-11T13:16:16;54.65;;;31.83;;
49366;SDS011;35245;52.026;8.540;2023-02-11T13:18:55;56.17;;;32.25;;
49366;SDS011;35245;52.026;8.540;2023-02-11T13:21:36;56.67;;;31.67;;
49366;SDS011;35245;52.026;8.540;2023-02-11T13:24:18;51.95;;;31.10;;
49366;SDS011;35245;52.026;8.540;2023-02-11T13:26:56;51.10;;;30.80;;
49366;SDS011;35245;52.026;8.540;2023-02-11T13:29:37;54.30;;;32.22;;
49366;SDS011;35245;52.026;8.540;2023-02-11T13:33:05;53.80;;;30.65;;
49366;SDS011;35245;52.026;8.540;2023-02-11T13:36:09;59.23;;;33.27;;
49366;SDS011;35245;52.026;8.540;2023-02-11T13:39:00;61.55;;;31.45;;
49366;SDS011;35245;52.026;8.540;2023-02-11T13:41:33;51.90;;;30.10;;
49366;SDS011;35245;52.026;8.540;2023-02-11T13:44:12;57.30;;;30.63;;
49366;SDS011;35245;52.026;8.540;2023-02-11T13:46:55;54.80;;;31.38;;
49366;SDS011;35245;52.026;8.540;2023-02-11T13:49:29;54.78;;;30.10;;
49366;SDS011;35245;52.026;8.540;2023-02-11T13:52:02;51.40;;;29.60;;
49366;SDS011;35245;52.026;8.540;2023-02-11T13:54:40;51.83;;;30.27;;
49366;SDS011;35245;52.026;8.540;2023-02-11T14:03:20;47.75;;;28.70;;
49366;SDS011;35245;52.026;8.540;2023-02-11T14:06:26;49.88;;;29.35;;
49366;SDS011;35245;52.026;8.540;2023-02-11T14:09:33;48.95;;;30.13;;
49366;SDS011;35245;52.026;8.540;2023-02-11T14:15:00;50.70;;;28.92;;
49366;SDS011;35245;52.026;8.540;2023-02-11T14:17:46;53.15;;;29.83;;
49366;SDS011;35245;52.026;8.540;2023-02-11T14:20:33;47.72;;;31.30;;
49366;SDS011;35245;52.026;8.540;2023-02-11T14:23:20;50.75;;;29.70;;
49366;SDS011;35245;52.026;8.540;2023-02-11T14:28:28;47.25;;;27.70;;
49366;SDS011;35245;52.026;8.540;2023-02-11T14:30:59;56.40;;;29.65;;
49366;SDS011;35245;52.026;8.540;2023-02-11T14:33:52;52.05;;;28.30;;
49366;SDS011;35245;52.026;8.540;2023-02-11T14:36:53;44.58;;;27.38;;
49366;SDS011;35245;52.026;8.540;2023-02-11T14:39:43;47.55;;;27.98;;
49366;SDS011;35245;52.026;8.540;2023-02-11T14:42:23;45.47;;;27.00;;
49366;SDS011;35245;52.026;8.540;2023-02-11T14:47:28;56.10;;;29.30;;
49366;SDS011;35245;52.026;8.540;2023-02-11T14:50:06;50.92;;;29.55;;
49366;SDS011;35245;52.026;8.540;2023-02-11T14:52:41;48.15;;;29.65;;
49366;SDS011;35245;52.026;8.540;2023-02-11T14:55:14;54.10;;;33.67;;
49366;SDS011;35245;52.026;8.540;2023-02-11T15:00:53;49.55;;;28.65;;
49366;SDS011;35245;52.026;8.540;2023-02-11T15:03:24;52.00;;;30.23;;
49366;SDS011;35245;52.026;8.540;2023-02-11T15:05:55;50.42;;;26.98;;
49366;SDS011;35245;52.026;8.540;2023-02-11T15:08:24;48.72;;;28.13;;
49366;SDS011;35245;52.026;8.540;2023-02-11T15:10:55;49.63;;;27.38;;
49366;SDS011;35245;52.026;8.540;2023-02-11T15:13:24;47.40;;;28.20;;
49366;SDS011;35245;52.026;8.540;2023-02-11T15:15:56;48.78;;;27.95;;
49366;SDS011;35245;52.026;8.540;2023-02-11T15:18:32;48.17;;;29.58;;
49366;SDS011;35245;52.026;8.540;2023-02-11T15:21:04;45.05;;;28.00;;
49366;SDS011;35245;52.026;8.540;2023-02-11T15:23:32;52.95;;;28.85;;
49366;SDS011;35245;52.026;8.540;2023-02-11T15:26:02;47.35;;;29.67;;
49366;SDS011;35245;52.026;8.540;2023-02-11T15:28:37;53.35;;;29.27;;
49366;SDS011;35245;52.026;8.540;2023-02-11T15:31:10;55.22;;;31.02;;
49366;SDS011;35245;52.026;8.540;2023-02-11T15:33:42;50.35;;;28.73;;
49366;SDS011;35245;52.026;8.540;2023-02-11T15:36:11;51.28;;;30.67;;
49366;SDS011;35245;52.026;8.540;2023-02-11T15:38:40;50.33;;;29.00;;
49366;SDS011;35245;52.026;8.540;2023-02-11T15:44:02;47.70;;;28.25;;
49366;SDS011;35245;52.026;8.540;2023-02-11T15:46:31;50.13;;;29.48;;